SAS129 EKCH-LPPR
Flight info
| Callsign | SAS129 |
|---|---|
| Flight time | 3h 0m |
| Altitude | 38000 |
| Route | ODDON DCT LUTIR DCT RENEQ DCT EZTIM UM185 DIGSU DCT IBNID/N0479F390 M195 LORKU DCT EBOMO DCT KORUL DCT ELTEP/N0429F230 T328 ASPOR |
| Aircraft | A346/H-SDE2E3FGHIJ3J4J5M1RWXY/LB1D1 |
Departure
| Time | 2026-05-05 18:39 |
|---|---|
| Airport | Copenhagen Kastrup Airport (EKCH) |
Arrival
| Time | 2026-05-05 21:40 |
|---|---|
| Airport | Francisco de Sá Carneiro Airport (LPPR) |
| Time | Latitude | Longitude | Altitude | Speed | Heading |
|---|---|---|---|---|---|
| 2026-05-05 18:10 | 55.62432 | 12.65083 | 32 ft | 0 kts | 269° |
| 2026-05-05 18:28 | 55.62432 | 12.65095 | 31 ft | 4 kts | 269° |
| 2026-05-05 18:29 | 55.62433 | 12.65142 | 29 ft | 4 kts | 269° |
| 2026-05-05 18:29 | 55.62433 | 12.65189 | 29 ft | 3 kts | 269° |
| 2026-05-05 18:29 | 55.62434 | 12.65194 | 29 ft | 0 kts | 269° |
| 2026-05-05 18:33 | 55.62433 | 12.65174 | 32 ft | 1 kts | 268° |
| 2026-05-05 18:33 | 55.62433 | 12.65172 | 32 ft | 0 kts | 259° |
| 2026-05-05 18:33 | 55.62427 | 12.65149 | 32 ft | 7 kts | 229° |
| 2026-05-05 18:34 | 55.62354 | 12.65148 | 32 ft | 13 kts | 165° |
| 2026-05-05 18:34 | 55.62285 | 12.65190 | 32 ft | 4 kts | 166° |
| 2026-05-05 18:34 | 55.62250 | 12.65193 | 32 ft | 7 kts | 187° |
| 2026-05-05 18:34 | 55.62199 | 12.65168 | 32 ft | 9 kts | 204° |
| 2026-05-05 18:35 | 55.62160 | 12.65133 | 32 ft | 2 kts | 209° |
| 2026-05-05 18:35 | 55.62146 | 12.65119 | 32 ft | 4 kts | 211° |
| 2026-05-05 18:35 | 55.62096 | 12.65062 | 32 ft | 16 kts | 213° |
| 2026-05-05 18:35 | 55.61951 | 12.64877 | 32 ft | 32 kts | 214° |
| 2026-05-05 18:36 | 55.61761 | 12.64667 | 32 ft | 33 kts | 211° |
| 2026-05-05 18:36 | 55.61575 | 12.64456 | 32 ft | 29 kts | 213° |
| 2026-05-05 18:36 | 55.61402 | 12.64253 | 32 ft | 30 kts | 213° |
| 2026-05-05 18:36 | 55.61220 | 12.64049 | 32 ft | 32 kts | 213° |
| 2026-05-05 18:37 | 55.61035 | 12.63826 | 32 ft | 33 kts | 215° |
| 2026-05-05 18:37 | 55.60844 | 12.63604 | 32 ft | 33 kts | 212° |
| 2026-05-05 18:37 | 55.60647 | 12.63373 | 32 ft | 34 kts | 217° |
| 2026-05-05 18:37 | 55.60505 | 12.63237 | 32 ft | 19 kts | 166° |
| 2026-05-05 18:38 | 55.60408 | 12.63380 | 33 ft | 13 kts | 105° |
| 2026-05-05 18:38 | 55.60449 | 12.63508 | 32 ft | 0 kts | 42° |
| 2026-05-05 18:38 | 55.60562 | 12.63684 | 32 ft | 55 kts | 41° |
| 2026-05-05 18:39 | 55.61018 | 12.64388 | 31 ft | 117 kts | 41° |
| 2026-05-05 18:39 | 55.61759 | 12.65544 | 36 ft | 164 kts | 36° |
| 2026-05-05 18:39 | 55.62671 | 12.66900 | 469 ft | 172 kts | 39° |
| 2026-05-05 18:39 | 55.63565 | 12.68276 | 1236 ft | 168 kts | 40° |
| 2026-05-05 18:40 | 55.64432 | 12.69654 | 1929 ft | 168 kts | 40° |
| 2026-05-05 18:40 | 55.65376 | 12.71012 | 2343 ft | 183 kts | 26° |
| 2026-05-05 18:40 | 55.66660 | 12.71506 | 2701 ft | 201 kts | 357° |
| 2026-05-05 18:40 | 55.68069 | 12.70806 | 3076 ft | 221 kts | 343° |
| 2026-05-05 18:41 | 55.69638 | 12.70264 | 3490 ft | 240 kts | 355° |
| 2026-05-05 18:41 | 55.71346 | 12.69962 | 4115 ft | 252 kts | 355° |
| 2026-05-05 18:41 | 55.73103 | 12.69697 | 4937 ft | 255 kts | 356° |
| 2026-05-05 18:41 | 55.74881 | 12.69471 | 5827 ft | 258 kts | 356° |
| 2026-05-05 18:42 | 55.76698 | 12.69263 | 6502 ft | 264 kts | 356° |
| 2026-05-05 18:42 | 55.78561 | 12.69066 | 6941 ft | 274 kts | 355° |
| 2026-05-05 18:42 | 55.80467 | 12.68792 | 7839 ft | 274 kts | 345° |
| 2026-05-05 18:42 | 55.82176 | 12.67427 | 8792 ft | 270 kts | 319° |
| 2026-05-05 18:43 | 55.83355 | 12.64863 | 9709 ft | 270 kts | 294° |
| 2026-05-05 18:43 | 55.84062 | 12.61761 | 10563 ft | 273 kts | 289° |
| 2026-05-05 18:43 | 55.84763 | 12.58512 | 11118 ft | 290 kts | 289° |
| 2026-05-05 18:43 | 55.85513 | 12.55059 | 11588 ft | 308 kts | 289° |
| 2026-05-05 18:44 | 55.86314 | 12.51402 | 12045 ft | 326 kts | 289° |
| 2026-05-05 18:44 | 55.87166 | 12.47534 | 12500 ft | 344 kts | 289° |
| 2026-05-05 18:44 | 55.88065 | 12.43464 | 12956 ft | 360 kts | 289° |
| 2026-05-05 18:44 | 55.88782 | 12.39167 | 13701 ft | 364 kts | 275° |
| 2026-05-05 18:45 | 55.88508 | 12.34700 | 14505 ft | 365 kts | 254° |
| 2026-05-05 18:45 | 55.87711 | 12.30410 | 15436 ft | 365 kts | 252° |
| 2026-05-05 18:45 | 55.86921 | 12.26091 | 16235 ft | 368 kts | 253° |
| 2026-05-05 18:45 | 55.86138 | 12.21712 | 17003 ft | 372 kts | 253° |
| 2026-05-05 18:46 | 55.85360 | 12.17294 | 17816 ft | 375 kts | 253° |
| 2026-05-05 18:46 | 55.84580 | 12.12836 | 18561 ft | 378 kts | 253° |
| 2026-05-05 18:46 | 55.83798 | 12.08343 | 19240 ft | 381 kts | 253° |
| 2026-05-05 18:46 | 55.83009 | 12.03808 | 19925 ft | 384 kts | 253° |
| 2026-05-05 18:47 | 55.82217 | 11.99258 | 20617 ft | 387 kts | 253° |
| 2026-05-05 18:47 | 55.81417 | 11.94662 | 21294 ft | 390 kts | 253° |
| 2026-05-05 18:47 | 55.80609 | 11.90030 | 21954 ft | 393 kts | 253° |
| 2026-05-05 18:47 | 55.79805 | 11.85428 | 22619 ft | 396 kts | 253° |
| 2026-05-05 18:48 | 55.78980 | 11.80723 | 23262 ft | 400 kts | 253° |
| 2026-05-05 18:48 | 55.78147 | 11.75977 | 23826 ft | 403 kts | 253° |
| 2026-05-05 18:48 | 55.77306 | 11.71195 | 24351 ft | 407 kts | 253° |
| 2026-05-05 18:48 | 55.76457 | 11.66381 | 24879 ft | 410 kts | 253° |
| 2026-05-05 18:49 | 55.75599 | 11.61533 | 25390 ft | 413 kts | 253° |
| 2026-05-05 18:49 | 55.74729 | 11.56633 | 25907 ft | 415 kts | 253° |
| 2026-05-05 18:49 | 55.73859 | 11.51740 | 26449 ft | 417 kts | 252° |
| 2026-05-05 18:49 | 55.72979 | 11.46808 | 26962 ft | 421 kts | 252° |
| 2026-05-05 18:50 | 55.72090 | 11.41833 | 27456 ft | 424 kts | 252° |
| 2026-05-05 18:50 | 55.71191 | 11.36825 | 27952 ft | 427 kts | 252° |
| 2026-05-05 18:50 | 55.70285 | 11.31784 | 28428 ft | 430 kts | 252° |
| 2026-05-05 18:50 | 55.69371 | 11.26713 | 28966 ft | 432 kts | 252° |
| 2026-05-05 18:51 | 55.68455 | 11.21642 | 29652 ft | 431 kts | 252° |
| 2026-05-05 18:51 | 55.67539 | 11.16587 | 30266 ft | 430 kts | 252° |
| 2026-05-05 18:51 | 55.66609 | 11.11476 | 30836 ft | 429 kts | 252° |
| 2026-05-05 18:51 | 55.65691 | 11.06443 | 31374 ft | 429 kts | 252° |
| 2026-05-05 18:52 | 55.64783 | 11.01476 | 31907 ft | 429 kts | 252° |
| 2026-05-05 18:52 | 55.63850 | 10.96384 | 32450 ft | 428 kts | 252° |
| 2026-05-05 18:52 | 55.62941 | 10.91440 | 32986 ft | 428 kts | 251° |
| 2026-05-05 18:52 | 55.62019 | 10.86433 | 33510 ft | 428 kts | 251° |
| 2026-05-05 18:53 | 55.61094 | 10.81427 | 34019 ft | 427 kts | 251° |
| 2026-05-05 18:53 | 55.60167 | 10.76425 | 34452 ft | 427 kts | 251° |
| 2026-05-05 18:53 | 55.59239 | 10.71433 | 34889 ft | 427 kts | 251° |
| 2026-05-05 18:53 | 55.58306 | 10.66456 | 35316 ft | 426 kts | 250° |
| 2026-05-05 18:54 | 55.57264 | 10.61547 | 35714 ft | 426 kts | 249° |
| 2026-05-05 18:54 | 55.56190 | 10.56668 | 36125 ft | 425 kts | 249° |
| 2026-05-05 18:54 | 55.55118 | 10.51803 | 36490 ft | 425 kts | 249° |
| 2026-05-05 18:54 | 55.54039 | 10.46915 | 36785 ft | 427 kts | 249° |
| 2026-05-05 18:55 | 55.52955 | 10.42018 | 37056 ft | 429 kts | 249° |
| 2026-05-05 18:55 | 55.51865 | 10.37100 | 37334 ft | 430 kts | 248° |
| 2026-05-05 18:55 | 55.50769 | 10.32169 | 37595 ft | 432 kts | 248° |
| 2026-05-05 18:55 | 55.49662 | 10.27201 | 37849 ft | 433 kts | 248° |
| 2026-05-05 18:56 | 55.47450 | 10.17309 | 37924 ft | 435 kts | 248° |
| 2026-05-05 18:56 | 55.45223 | 10.07395 | 37931 ft | 435 kts | 248° |
| 2026-05-05 18:57 | 55.42985 | 9.97479 | 37934 ft | 436 kts | 248° |
| 2026-05-05 18:57 | 55.40731 | 9.87540 | 37933 ft | 437 kts | 248° |
| 2026-05-05 18:58 | 55.38469 | 9.77609 | 37899 ft | 437 kts | 248° |
| 2026-05-05 18:58 | 55.36197 | 9.67680 | 37919 ft | 437 kts | 248° |
| 2026-05-05 18:59 | 55.33918 | 9.57775 | 37927 ft | 436 kts | 248° |
| 2026-05-05 18:59 | 55.31631 | 9.47881 | 37928 ft | 436 kts | 248° |
| 2026-05-05 19:00 | 55.29338 | 9.38007 | 37939 ft | 437 kts | 248° |
| 2026-05-05 19:00 | 55.27031 | 9.28115 | 37935 ft | 437 kts | 248° |
| 2026-05-05 19:01 | 55.24716 | 9.18232 | 37937 ft | 438 kts | 248° |
| 2026-05-05 19:01 | 55.22393 | 9.08360 | 37933 ft | 438 kts | 247° |
| 2026-05-05 19:02 | 55.20062 | 8.98499 | 37932 ft | 438 kts | 247° |
| 2026-05-05 19:02 | 55.17723 | 8.88647 | 37916 ft | 438 kts | 247° |
| 2026-05-05 19:03 | 55.15375 | 8.78809 | 37934 ft | 438 kts | 247° |
| 2026-05-05 19:03 | 55.13014 | 8.68961 | 37937 ft | 439 kts | 247° |
| 2026-05-05 19:04 | 55.10660 | 8.59180 | 37933 ft | 439 kts | 247° |
| 2026-05-05 19:04 | 55.08264 | 8.49281 | 37937 ft | 439 kts | 247° |
| 2026-05-05 19:05 | 55.06039 | 8.39418 | 37935 ft | 439 kts | 251° |
| 2026-05-05 19:05 | 55.04181 | 8.29250 | 37934 ft | 439 kts | 252° |
| 2026-05-05 19:06 | 55.02334 | 8.19087 | 37935 ft | 440 kts | 252° |
| 2026-05-05 19:06 | 55.00475 | 8.08896 | 37935 ft | 441 kts | 252° |
| 2026-05-05 19:07 | 54.98916 | 8.00374 | 37928 ft | 441 kts | 251° |
| 2026-05-05 19:07 | 54.96739 | 7.88554 | 37947 ft | 441 kts | 251° |
| 2026-05-05 19:08 | 54.94857 | 7.78393 | 37944 ft | 441 kts | 251° |
| 2026-05-05 19:08 | 54.92966 | 7.68239 | 37943 ft | 441 kts | 251° |
| 2026-05-05 19:09 | 54.91065 | 7.58087 | 37954 ft | 442 kts | 251° |
| 2026-05-05 19:09 | 54.89153 | 7.47929 | 37950 ft | 442 kts | 251° |
| 2026-05-05 19:10 | 54.87230 | 7.37764 | 37948 ft | 442 kts | 251° |
| 2026-05-05 19:10 | 54.85300 | 7.27615 | 37953 ft | 442 kts | 251° |
| 2026-05-05 19:11 | 54.83361 | 7.17475 | 37950 ft | 442 kts | 251° |
| 2026-05-05 19:11 | 54.81411 | 7.07335 | 37947 ft | 442 kts | 251° |
| 2026-05-05 19:12 | 54.79455 | 6.97205 | 37937 ft | 443 kts | 250° |
| 2026-05-05 19:12 | 54.77485 | 6.87065 | 37954 ft | 444 kts | 250° |
| 2026-05-05 19:13 | 54.75840 | 6.78643 | 37949 ft | 444 kts | 250° |
| 2026-05-05 19:13 | 54.73850 | 6.68500 | 37959 ft | 444 kts | 250° |
| 2026-05-05 19:14 | 54.71854 | 6.58380 | 37947 ft | 444 kts | 250° |
| 2026-05-05 19:14 | 54.69848 | 6.48263 | 37967 ft | 444 kts | 250° |
| 2026-05-05 19:15 | 54.67830 | 6.38143 | 37951 ft | 444 kts | 250° |
| 2026-05-05 19:15 | 54.65806 | 6.28032 | 37950 ft | 445 kts | 250° |
| 2026-05-05 19:16 | 54.63774 | 6.17936 | 37959 ft | 445 kts | 250° |
| 2026-05-05 19:16 | 54.61732 | 6.07845 | 37952 ft | 445 kts | 250° |
| 2026-05-05 19:17 | 54.59684 | 5.97767 | 37937 ft | 445 kts | 250° |
| 2026-05-05 19:17 | 54.57622 | 5.87683 | 37957 ft | 446 kts | 250° |
| 2026-05-05 19:18 | 54.55545 | 5.77582 | 37957 ft | 447 kts | 250° |
| 2026-05-05 19:18 | 54.53460 | 5.67482 | 37954 ft | 447 kts | 250° |
| 2026-05-05 19:19 | 54.51363 | 5.57381 | 37953 ft | 447 kts | 249° |
| 2026-05-05 19:19 | 54.49256 | 5.47279 | 37959 ft | 447 kts | 249° |
| 2026-05-05 19:20 | 54.47144 | 5.37206 | 37959 ft | 447 kts | 249° |
| 2026-05-05 19:20 | 54.45023 | 5.27143 | 37962 ft | 448 kts | 249° |
| 2026-05-05 19:21 | 54.42891 | 5.17073 | 37963 ft | 448 kts | 249° |
| 2026-05-05 19:21 | 54.40751 | 5.07015 | 37956 ft | 448 kts | 249° |
| 2026-05-05 19:22 | 54.38606 | 4.96977 | 37941 ft | 448 kts | 249° |
| 2026-05-05 19:22 | 54.36444 | 4.86914 | 37951 ft | 449 kts | 249° |
| 2026-05-05 19:23 | 54.34272 | 4.76864 | 37950 ft | 449 kts | 249° |
| 2026-05-05 19:23 | 54.32093 | 4.66821 | 37965 ft | 449 kts | 249° |
| 2026-05-05 19:24 | 54.29906 | 4.56788 | 37962 ft | 449 kts | 249° |
| 2026-05-05 19:24 | 54.27708 | 4.46768 | 37964 ft | 449 kts | 249° |
| 2026-05-05 19:25 | 54.25283 | 4.36994 | 37950 ft | 449 kts | 243° |
| 2026-05-05 19:25 | 54.22270 | 4.27639 | 37953 ft | 448 kts | 238° |
| 2026-05-05 19:26 | 54.18718 | 4.18865 | 37965 ft | 449 kts | 232° |
| 2026-05-05 19:26 | 54.14784 | 4.10457 | 37947 ft | 450 kts | 231° |
| 2026-05-05 19:27 | 54.10894 | 4.02166 | 37967 ft | 450 kts | 231° |
| 2026-05-05 19:27 | 54.06971 | 3.93843 | 37958 ft | 450 kts | 231° |
| 2026-05-05 19:28 | 54.03009 | 3.85474 | 37957 ft | 451 kts | 231° |
| 2026-05-05 19:28 | 53.99070 | 3.77182 | 37956 ft | 451 kts | 231° |
| 2026-05-05 19:29 | 53.95150 | 3.68959 | 37951 ft | 451 kts | 231° |
| 2026-05-05 19:29 | 53.91189 | 3.60678 | 37948 ft | 452 kts | 231° |
| 2026-05-05 19:30 | 53.87215 | 3.52397 | 37967 ft | 452 kts | 231° |
| 2026-05-05 19:30 | 53.83237 | 3.44135 | 37948 ft | 452 kts | 231° |
| 2026-05-05 19:31 | 53.79253 | 3.35888 | 37954 ft | 452 kts | 231° |
| 2026-05-05 19:31 | 53.75262 | 3.27655 | 37968 ft | 452 kts | 231° |
| 2026-05-05 19:32 | 53.71265 | 3.19435 | 37949 ft | 452 kts | 231° |
| 2026-05-05 19:32 | 53.67269 | 3.11236 | 37966 ft | 452 kts | 230° |
| 2026-05-05 19:33 | 53.63255 | 3.03046 | 37943 ft | 453 kts | 230° |
| 2026-05-05 19:33 | 53.59234 | 2.94859 | 37960 ft | 454 kts | 230° |
| 2026-05-05 19:34 | 53.55202 | 2.86677 | 37967 ft | 454 kts | 230° |
| 2026-05-05 19:35 | 53.49146 | 2.74435 | 37943 ft | 454 kts | 230° |
| 2026-05-05 19:35 | 53.45098 | 2.66289 | 37966 ft | 454 kts | 230° |
| 2026-05-05 19:36 | 53.40902 | 2.58377 | 37967 ft | 454 kts | 226° |
| 2026-05-05 19:36 | 53.36250 | 2.51182 | 37957 ft | 455 kts | 221° |
| 2026-05-05 19:37 | 53.31470 | 2.44205 | 37954 ft | 456 kts | 221° |
| 2026-05-05 19:37 | 53.26691 | 2.37238 | 37971 ft | 456 kts | 221° |
| 2026-05-05 19:38 | 53.21905 | 2.30288 | 37946 ft | 456 kts | 221° |
| 2026-05-05 19:38 | 53.17147 | 2.23404 | 37967 ft | 456 kts | 221° |
| 2026-05-05 19:39 | 53.12347 | 2.16484 | 37965 ft | 456 kts | 221° |
| 2026-05-05 19:39 | 53.07545 | 2.09581 | 37963 ft | 456 kts | 221° |
| 2026-05-05 19:40 | 53.02737 | 2.02692 | 37978 ft | 456 kts | 221° |
| 2026-05-05 19:40 | 52.97925 | 1.95816 | 37968 ft | 457 kts | 221° |
| 2026-05-05 19:41 | 52.93092 | 1.88932 | 37947 ft | 457 kts | 221° |
| 2026-05-05 19:41 | 52.88258 | 1.82069 | 37967 ft | 457 kts | 221° |
| 2026-05-05 19:42 | 52.83417 | 1.75218 | 37979 ft | 457 kts | 221° |
| 2026-05-05 19:42 | 52.78573 | 1.68382 | 37956 ft | 457 kts | 221° |
| 2026-05-05 19:43 | 52.73730 | 1.61563 | 37971 ft | 457 kts | 220° |
| 2026-05-05 19:43 | 52.68882 | 1.54761 | 37987 ft | 457 kts | 220° |
| 2026-05-05 19:44 | 52.64017 | 1.47963 | 37991 ft | 458 kts | 220° |
| 2026-05-05 19:44 | 52.59145 | 1.41172 | 37990 ft | 459 kts | 220° |
| 2026-05-05 19:45 | 52.54268 | 1.34391 | 37992 ft | 459 kts | 220° |
| 2026-05-05 19:45 | 52.49388 | 1.27624 | 37985 ft | 459 kts | 220° |
| 2026-05-05 19:46 | 52.44512 | 1.20886 | 37982 ft | 458 kts | 220° |
| 2026-05-05 19:46 | 52.39629 | 1.14161 | 37980 ft | 458 kts | 220° |
| 2026-05-05 19:47 | 52.34743 | 1.07451 | 37964 ft | 458 kts | 220° |
| 2026-05-05 19:47 | 52.29850 | 1.00750 | 37964 ft | 459 kts | 220° |
| 2026-05-05 19:48 | 52.24948 | 0.94057 | 37960 ft | 460 kts | 220° |
| 2026-05-05 19:48 | 52.20027 | 0.87357 | 37971 ft | 461 kts | 220° |
| 2026-05-05 19:49 | 52.15084 | 0.80649 | 37962 ft | 461 kts | 220° |
| 2026-05-05 19:49 | 52.10153 | 0.73975 | 37964 ft | 461 kts | 220° |
| 2026-05-05 19:50 | 52.05216 | 0.67316 | 37959 ft | 461 kts | 220° |
| 2026-05-05 19:50 | 52.00486 | 0.60263 | 37957 ft | 462 kts | 225° |
| 2026-05-05 19:51 | 51.96047 | 0.52740 | 37958 ft | 462 kts | 226° |
| 2026-05-05 19:51 | 51.91621 | 0.45270 | 37962 ft | 462 kts | 226° |
| 2026-05-05 19:52 | 51.87165 | 0.37762 | 37961 ft | 462 kts | 226° |
| 2026-05-05 19:52 | 51.82700 | 0.30257 | 37961 ft | 462 kts | 226° |
| 2026-05-05 19:53 | 51.78203 | 0.22714 | 37958 ft | 463 kts | 225° |
| 2026-05-05 19:53 | 51.73750 | 0.15274 | 37958 ft | 464 kts | 225° |
| 2026-05-05 19:54 | 51.69256 | 0.07791 | 37956 ft | 464 kts | 225° |
| 2026-05-05 19:54 | 51.64727 | 0.00271 | 37959 ft | 464 kts | 225° |
| 2026-05-05 19:55 | 51.60196 | -0.07226 | 37998 ft | 465 kts | 225° |
| 2026-05-05 19:55 | 51.55668 | -0.14702 | 37992 ft | 465 kts | 225° |
| 2026-05-05 19:56 | 51.51145 | -0.22148 | 37934 ft | 466 kts | 225° |
| 2026-05-05 19:56 | 51.46612 | -0.29585 | 37961 ft | 466 kts | 225° |
| 2026-05-05 19:57 | 51.42074 | -0.37007 | 37959 ft | 466 kts | 225° |
| 2026-05-05 19:57 | 51.37509 | -0.44451 | 37960 ft | 466 kts | 225° |
| 2026-05-05 19:58 | 51.32963 | -0.51843 | 37951 ft | 466 kts | 225° |
| 2026-05-05 19:58 | 51.29141 | -0.58042 | 37957 ft | 467 kts | 225° |
| 2026-05-05 19:59 | 51.24599 | -0.65384 | 37961 ft | 467 kts | 225° |
| 2026-05-05 19:59 | 51.20016 | -0.72772 | 37961 ft | 467 kts | 225° |
| 2026-05-05 20:00 | 51.15432 | -0.80139 | 37956 ft | 467 kts | 225° |
| 2026-05-05 20:00 | 51.10834 | -0.87507 | 37956 ft | 467 kts | 225° |
| 2026-05-05 20:01 | 51.06235 | -0.94855 | 37943 ft | 467 kts | 225° |
| 2026-05-05 20:01 | 51.01636 | -1.02176 | 37951 ft | 468 kts | 225° |
| 2026-05-05 20:02 | 50.97036 | -1.09485 | 37954 ft | 468 kts | 225° |
| 2026-05-05 20:02 | 50.92429 | -1.16781 | 37959 ft | 468 kts | 225° |
| 2026-05-05 20:03 | 50.87817 | -1.24064 | 37960 ft | 468 kts | 225° |
| 2026-05-05 20:03 | 50.83193 | -1.31345 | 37957 ft | 469 kts | 225° |
| 2026-05-05 20:04 | 50.78560 | -1.38615 | 37954 ft | 469 kts | 224° |
| 2026-05-05 20:04 | 50.73898 | -1.45905 | 37950 ft | 469 kts | 225° |
| 2026-05-05 20:05 | 50.69250 | -1.53160 | 37952 ft | 469 kts | 225° |
| 2026-05-05 20:05 | 50.64602 | -1.60394 | 37952 ft | 469 kts | 225° |
| 2026-05-05 20:06 | 50.59945 | -1.67619 | 37944 ft | 470 kts | 224° |
| 2026-05-05 20:06 | 50.55229 | -1.74762 | 37939 ft | 471 kts | 221° |
| 2026-05-05 20:07 | 50.50159 | -1.81169 | 37942 ft | 471 kts | 216° |
| 2026-05-05 20:07 | 50.44697 | -1.86847 | 37947 ft | 471 kts | 213° |
| 2026-05-05 20:08 | 50.39198 | -1.92444 | 37936 ft | 470 kts | 213° |
| 2026-05-05 20:08 | 50.33705 | -1.98028 | 37938 ft | 471 kts | 213° |
| 2026-05-05 20:09 | 50.28206 | -2.03590 | 37942 ft | 471 kts | 213° |
| 2026-05-05 20:09 | 50.22693 | -2.09120 | 37941 ft | 471 kts | 212° |
| 2026-05-05 20:10 | 50.17138 | -2.14529 | 37931 ft | 470 kts | 212° |
| 2026-05-05 20:10 | 50.11562 | -2.19938 | 37938 ft | 472 kts | 212° |
| 2026-05-05 20:11 | 50.05986 | -2.25339 | 37943 ft | 472 kts | 212° |
| 2026-05-05 20:11 | 50.00403 | -2.30733 | 37937 ft | 472 kts | 212° |
| 2026-05-05 20:12 | 49.94832 | -2.36106 | 37939 ft | 471 kts | 212° |
| 2026-05-05 20:12 | 49.89249 | -2.41489 | 37946 ft | 472 kts | 212° |
| 2026-05-05 20:13 | 49.83661 | -2.46856 | 37942 ft | 473 kts | 212° |
| 2026-05-05 20:13 | 49.78073 | -2.52210 | 37939 ft | 473 kts | 212° |
| 2026-05-05 20:14 | 49.72476 | -2.57557 | 37945 ft | 472 kts | 212° |
| 2026-05-05 20:14 | 49.66865 | -2.62908 | 37954 ft | 474 kts | 212° |
| 2026-05-05 20:15 | 49.61241 | -2.68252 | 37953 ft | 475 kts | 212° |
| 2026-05-05 20:15 | 49.55614 | -2.73578 | 37957 ft | 475 kts | 212° |
| 2026-05-05 20:16 | 49.49986 | -2.78898 | 37958 ft | 475 kts | 212° |
| 2026-05-05 20:16 | 49.44347 | -2.84219 | 37948 ft | 476 kts | 212° |
| 2026-05-05 20:17 | 49.38690 | -2.89537 | 37956 ft | 476 kts | 212° |
| 2026-05-05 20:17 | 49.33032 | -2.94841 | 37957 ft | 477 kts | 212° |
| 2026-05-05 20:18 | 49.27378 | -3.00127 | 37954 ft | 477 kts | 212° |
| 2026-05-05 20:18 | 49.21711 | -3.05415 | 37960 ft | 477 kts | 211° |
| 2026-05-05 20:19 | 49.16028 | -3.10695 | 37958 ft | 478 kts | 212° |
| 2026-05-05 20:19 | 49.10342 | -3.15964 | 37961 ft | 478 kts | 212° |
| 2026-05-05 20:20 | 49.04649 | -3.21231 | 37966 ft | 478 kts | 212° |
| 2026-05-05 20:20 | 48.98951 | -3.26489 | 37971 ft | 479 kts | 211° |
| 2026-05-05 20:21 | 48.93240 | -3.31742 | 37979 ft | 479 kts | 211° |
| 2026-05-05 20:21 | 48.87528 | -3.36981 | 37985 ft | 479 kts | 211° |
| 2026-05-05 20:22 | 48.81797 | -3.42225 | 38133 ft | 483 kts | 211° |
| 2026-05-05 20:22 | 48.78921 | -3.44850 | 38577 ft | 480 kts | 211° |
| 2026-05-05 20:22 | 48.76069 | -3.47451 | 38931 ft | 478 kts | 211° |
| 2026-05-05 20:22 | 48.73221 | -3.50040 | 39213 ft | 477 kts | 212° |
| 2026-05-05 20:23 | 48.70373 | -3.52629 | 39437 ft | 477 kts | 212° |
| 2026-05-05 20:23 | 48.67522 | -3.55220 | 39617 ft | 478 kts | 212° |
| 2026-05-05 20:23 | 48.64663 | -3.57813 | 39828 ft | 478 kts | 212° |
| 2026-05-05 20:23 | 48.61813 | -3.60398 | 39963 ft | 479 kts | 211° |
| 2026-05-05 20:24 | 48.58951 | -3.62986 | 39981 ft | 478 kts | 212° |
| 2026-05-05 20:24 | 48.53238 | -3.68146 | 39985 ft | 479 kts | 211° |
| 2026-05-05 20:25 | 48.47515 | -3.73298 | 39985 ft | 479 kts | 211° |
| 2026-05-05 20:25 | 48.41794 | -3.78433 | 39984 ft | 479 kts | 211° |
| 2026-05-05 20:26 | 48.36101 | -3.83530 | 39989 ft | 479 kts | 211° |
| 2026-05-05 20:26 | 48.30368 | -3.88652 | 39985 ft | 480 kts | 211° |
| 2026-05-05 20:27 | 48.24621 | -3.93776 | 39988 ft | 481 kts | 211° |
| 2026-05-05 20:27 | 48.18864 | -3.98887 | 39986 ft | 481 kts | 211° |
| 2026-05-05 20:28 | 48.13103 | -4.03988 | 39987 ft | 481 kts | 211° |
| 2026-05-05 20:28 | 48.07339 | -4.09083 | 39988 ft | 481 kts | 211° |
| 2026-05-05 20:29 | 48.01568 | -4.14176 | 39988 ft | 481 kts | 211° |
| 2026-05-05 20:29 | 47.95801 | -4.19247 | 39988 ft | 481 kts | 211° |
| 2026-05-05 20:30 | 47.90025 | -4.24311 | 39986 ft | 482 kts | 211° |
| 2026-05-05 20:30 | 47.84231 | -4.29379 | 39985 ft | 483 kts | 211° |
| 2026-05-05 20:31 | 47.78470 | -4.34543 | 39981 ft | 483 kts | 213° |
| 2026-05-05 20:31 | 47.72781 | -4.39860 | 39982 ft | 483 kts | 213° |
| 2026-05-05 20:32 | 47.67086 | -4.45166 | 39980 ft | 483 kts | 213° |
| 2026-05-05 20:32 | 47.61379 | -4.50453 | 39980 ft | 483 kts | 212° |
| 2026-05-05 20:33 | 47.55669 | -4.55718 | 39984 ft | 483 kts | 212° |
| 2026-05-05 20:33 | 47.49953 | -4.60971 | 39978 ft | 484 kts | 213° |
| 2026-05-05 20:34 | 47.44238 | -4.66219 | 39983 ft | 483 kts | 212° |
| 2026-05-05 20:34 | 47.38519 | -4.71455 | 39982 ft | 483 kts | 212° |
| 2026-05-05 20:35 | 47.32798 | -4.76673 | 39980 ft | 483 kts | 212° |
| 2026-05-05 20:35 | 47.27075 | -4.81878 | 39978 ft | 483 kts | 212° |
| 2026-05-05 20:36 | 47.21354 | -4.87074 | 39980 ft | 483 kts | 213° |
| 2026-05-05 20:36 | 47.15630 | -4.92260 | 39980 ft | 483 kts | 212° |
| 2026-05-05 20:37 | 47.09900 | -4.97434 | 39978 ft | 484 kts | 213° |
| 2026-05-05 20:37 | 47.04157 | -5.02604 | 39981 ft | 484 kts | 212° |
| 2026-05-05 20:38 | 46.98422 | -5.07758 | 39981 ft | 484 kts | 213° |
| 2026-05-05 20:38 | 46.92682 | -5.12900 | 39980 ft | 484 kts | 213° |
| 2026-05-05 20:39 | 46.86944 | -5.18032 | 39980 ft | 484 kts | 213° |
| 2026-05-05 20:39 | 46.81195 | -5.23160 | 39984 ft | 484 kts | 213° |
| 2026-05-05 20:40 | 46.75445 | -5.28276 | 39985 ft | 484 kts | 213° |
| 2026-05-05 20:40 | 46.69684 | -5.33383 | 39984 ft | 485 kts | 213° |
| 2026-05-05 20:41 | 46.63919 | -5.38484 | 39982 ft | 485 kts | 212° |
| 2026-05-05 20:41 | 46.58192 | -5.43543 | 39985 ft | 485 kts | 213° |
| 2026-05-05 20:42 | 46.52423 | -5.48626 | 39985 ft | 485 kts | 212° |
| 2026-05-05 20:42 | 46.46651 | -5.53697 | 39991 ft | 485 kts | 212° |
| 2026-05-05 20:43 | 46.40868 | -5.58758 | 39989 ft | 485 kts | 212° |
| 2026-05-05 20:43 | 46.35075 | -5.63820 | 39991 ft | 485 kts | 212° |
| 2026-05-05 20:44 | 46.30216 | -5.68059 | 39995 ft | 486 kts | 213° |
| 2026-05-05 20:44 | 46.24425 | -5.73100 | 39998 ft | 485 kts | 213° |
| 2026-05-05 20:45 | 46.15733 | -5.80636 | 40003 ft | 486 kts | 213° |
| 2026-05-05 20:45 | 46.09931 | -5.85654 | 40006 ft | 486 kts | 212° |
| 2026-05-05 20:46 | 46.04130 | -5.90662 | 40009 ft | 486 kts | 212° |
| 2026-05-05 20:46 | 45.98335 | -5.95642 | 40005 ft | 485 kts | 212° |
| 2026-05-05 20:47 | 45.92574 | -6.00582 | 40010 ft | 486 kts | 212° |
| 2026-05-05 20:47 | 45.86727 | -6.05588 | 40013 ft | 486 kts | 213° |
| 2026-05-05 20:48 | 45.80960 | -6.10514 | 40012 ft | 485 kts | 212° |
| 2026-05-05 20:48 | 45.75153 | -6.15458 | 40019 ft | 485 kts | 212° |
| 2026-05-05 20:49 | 45.69347 | -6.20390 | 40018 ft | 485 kts | 212° |
| 2026-05-05 20:49 | 45.63543 | -6.25313 | 40021 ft | 485 kts | 212° |
| 2026-05-05 20:50 | 45.57733 | -6.30225 | 40018 ft | 485 kts | 212° |
| 2026-05-05 20:50 | 45.51924 | -6.35120 | 40025 ft | 485 kts | 212° |
| 2026-05-05 20:51 | 45.46117 | -6.40006 | 40029 ft | 485 kts | 212° |
| 2026-05-05 20:51 | 45.40302 | -6.44887 | 40029 ft | 485 kts | 212° |
| 2026-05-05 20:52 | 45.34486 | -6.49756 | 40031 ft | 484 kts | 212° |
| 2026-05-05 20:52 | 45.28671 | -6.54615 | 40034 ft | 484 kts | 212° |
| 2026-05-05 20:53 | 45.22861 | -6.59458 | 40032 ft | 485 kts | 212° |
| 2026-05-05 20:53 | 45.17036 | -6.64300 | 40035 ft | 484 kts | 212° |
| 2026-05-05 20:54 | 45.11225 | -6.69122 | 40039 ft | 484 kts | 212° |
| 2026-05-05 20:54 | 45.05411 | -6.73935 | 40040 ft | 484 kts | 212° |
| 2026-05-05 20:55 | 44.99599 | -6.78735 | 40048 ft | 484 kts | 212° |
| 2026-05-05 20:55 | 44.93791 | -6.83519 | 40047 ft | 483 kts | 212° |
| 2026-05-05 20:56 | 44.87947 | -6.88222 | 40046 ft | 484 kts | 209° |
| 2026-05-05 20:56 | 44.81826 | -6.92190 | 40049 ft | 485 kts | 203° |
| 2026-05-05 20:57 | 44.75411 | -6.95221 | 40053 ft | 487 kts | 198° |
| 2026-05-05 20:57 | 44.68902 | -6.97826 | 40052 ft | 486 kts | 198° |
| 2026-05-05 20:58 | 44.62396 | -7.00443 | 40056 ft | 486 kts | 198° |
| 2026-05-05 20:58 | 44.55890 | -7.03054 | 40055 ft | 486 kts | 198° |
| 2026-05-05 20:59 | 44.49388 | -7.05658 | 40056 ft | 486 kts | 198° |
| 2026-05-05 20:59 | 44.42883 | -7.08256 | 40063 ft | 486 kts | 198° |
| 2026-05-05 21:00 | 44.36375 | -7.10847 | 40059 ft | 486 kts | 198° |
| 2026-05-05 21:00 | 44.29878 | -7.13431 | 40061 ft | 485 kts | 198° |
| 2026-05-05 21:01 | 44.23381 | -7.16010 | 40067 ft | 485 kts | 198° |
| 2026-05-05 21:01 | 44.16880 | -7.18582 | 40061 ft | 485 kts | 198° |
| 2026-05-05 21:02 | 44.10384 | -7.21146 | 40069 ft | 485 kts | 198° |
| 2026-05-05 21:02 | 44.03890 | -7.23705 | 40064 ft | 485 kts | 198° |
| 2026-05-05 21:03 | 43.97393 | -7.26258 | 40062 ft | 485 kts | 198° |
| 2026-05-05 21:03 | 43.90896 | -7.28804 | 39854 ft | 485 kts | 198° |
| 2026-05-05 21:04 | 43.87702 | -7.30054 | 39628 ft | 482 kts | 198° |
| 2026-05-05 21:04 | 43.84473 | -7.31317 | 39403 ft | 480 kts | 198° |
| 2026-05-05 21:04 | 43.81268 | -7.32568 | 39173 ft | 477 kts | 198° |
| 2026-05-05 21:04 | 43.78079 | -7.33812 | 38941 ft | 475 kts | 199° |
| 2026-05-05 21:05 | 43.74906 | -7.35047 | 38722 ft | 473 kts | 199° |
| 2026-05-05 21:05 | 43.71737 | -7.36282 | 38442 ft | 473 kts | 199° |
| 2026-05-05 21:05 | 43.68570 | -7.37514 | 38144 ft | 471 kts | 199° |
| 2026-05-05 21:05 | 43.65422 | -7.38737 | 37671 ft | 469 kts | 199° |
| 2026-05-05 21:06 | 43.62270 | -7.39961 | 37395 ft | 473 kts | 199° |
| 2026-05-05 21:06 | 43.59087 | -7.41197 | 37131 ft | 476 kts | 199° |
| 2026-05-05 21:06 | 43.55909 | -7.42426 | 36846 ft | 473 kts | 199° |
| 2026-05-05 21:06 | 43.52747 | -7.43646 | 36309 ft | 471 kts | 199° |
| 2026-05-05 21:07 | 43.49586 | -7.44867 | 35568 ft | 474 kts | 199° |
| 2026-05-05 21:07 | 43.46400 | -7.46097 | 34697 ft | 476 kts | 200° |
| 2026-05-05 21:07 | 43.43206 | -7.47327 | 33341 ft | 478 kts | 200° |
| 2026-05-05 21:07 | 43.39993 | -7.48563 | 31926 ft | 480 kts | 200° |
| 2026-05-05 21:08 | 43.36764 | -7.49805 | 30445 ft | 484 kts | 200° |
| 2026-05-05 21:08 | 43.33510 | -7.51060 | 28724 ft | 489 kts | 200° |
| 2026-05-05 21:08 | 43.30210 | -7.52339 | 27717 ft | 493 kts | 199° |
| 2026-05-05 21:08 | 43.26922 | -7.53601 | 27183 ft | 487 kts | 199° |
| 2026-05-05 21:09 | 43.23670 | -7.54844 | 26561 ft | 483 kts | 199° |
| 2026-05-05 21:09 | 43.20449 | -7.56075 | 25961 ft | 480 kts | 199° |
| 2026-05-05 21:09 | 43.17240 | -7.57299 | 25360 ft | 476 kts | 199° |
| 2026-05-05 21:09 | 43.14068 | -7.58506 | 24822 ft | 471 kts | 199° |
| 2026-05-05 21:10 | 43.10923 | -7.59710 | 24293 ft | 467 kts | 199° |
| 2026-05-05 21:10 | 43.07799 | -7.60902 | 23698 ft | 464 kts | 199° |
| 2026-05-05 21:10 | 43.04700 | -7.62083 | 23057 ft | 460 kts | 199° |
| 2026-05-05 21:10 | 43.01630 | -7.63256 | 22436 ft | 456 kts | 199° |
| 2026-05-05 21:11 | 42.98592 | -7.64416 | 21847 ft | 452 kts | 198° |
| 2026-05-05 21:11 | 42.95574 | -7.65562 | 21249 ft | 448 kts | 198° |
| 2026-05-05 21:11 | 42.92583 | -7.66697 | 20666 ft | 444 kts | 198° |
| 2026-05-05 21:11 | 42.89623 | -7.67820 | 20104 ft | 440 kts | 197° |
| 2026-05-05 21:12 | 42.86683 | -7.68933 | 19548 ft | 437 kts | 197° |
| 2026-05-05 21:12 | 42.83765 | -7.70037 | 18986 ft | 433 kts | 197° |
| 2026-05-05 21:12 | 42.80873 | -7.71129 | 18444 ft | 430 kts | 196° |
| 2026-05-05 21:12 | 42.78000 | -7.72210 | 17846 ft | 426 kts | 196° |
| 2026-05-05 21:13 | 42.75153 | -7.73275 | 17247 ft | 423 kts | 197° |
| 2026-05-05 21:13 | 42.72334 | -7.74328 | 16410 ft | 417 kts | 197° |
| 2026-05-05 21:13 | 42.69558 | -7.75373 | 15280 ft | 410 kts | 197° |
| 2026-05-05 21:13 | 42.66839 | -7.76396 | 14376 ft | 403 kts | 196° |
| 2026-05-05 21:14 | 42.64158 | -7.77403 | 13973 ft | 396 kts | 196° |
| 2026-05-05 21:14 | 42.61503 | -7.78399 | 13289 ft | 396 kts | 196° |
| 2026-05-05 21:14 | 42.58855 | -7.79394 | 12690 ft | 393 kts | 197° |
| 2026-05-05 21:14 | 42.56229 | -7.80380 | 12131 ft | 390 kts | 197° |
| 2026-05-05 21:15 | 42.53624 | -7.81358 | 11581 ft | 387 kts | 197° |
| 2026-05-05 21:15 | 42.51044 | -7.82326 | 11169 ft | 383 kts | 197° |
| 2026-05-05 21:15 | 42.48468 | -7.83292 | 11097 ft | 385 kts | 197° |
| 2026-05-05 21:15 | 42.45886 | -7.84261 | 11095 ft | 385 kts | 197° |
| 2026-05-05 21:16 | 42.43300 | -7.85230 | 11080 ft | 385 kts | 197° |
| 2026-05-05 21:16 | 42.40717 | -7.86195 | 11089 ft | 386 kts | 197° |
| 2026-05-05 21:16 | 42.38132 | -7.87161 | 11090 ft | 386 kts | 197° |
| 2026-05-05 21:16 | 42.35542 | -7.88128 | 11092 ft | 386 kts | 197° |
| 2026-05-05 21:17 | 42.32956 | -7.89093 | 11082 ft | 386 kts | 197° |
| 2026-05-05 21:17 | 42.30366 | -7.90058 | 11088 ft | 386 kts | 197° |
| 2026-05-05 21:17 | 42.27777 | -7.91022 | 11088 ft | 386 kts | 197° |
| 2026-05-05 21:17 | 42.25190 | -7.91984 | 11089 ft | 386 kts | 197° |
| 2026-05-05 21:18 | 42.22604 | -7.92946 | 11092 ft | 386 kts | 197° |
| 2026-05-05 21:18 | 42.20013 | -7.93908 | 11091 ft | 386 kts | 197° |
| 2026-05-05 21:18 | 42.17422 | -7.94870 | 11091 ft | 386 kts | 196° |
| 2026-05-05 21:18 | 42.14832 | -7.95829 | 11093 ft | 386 kts | 197° |
| 2026-05-05 21:19 | 42.12244 | -7.96788 | 11086 ft | 386 kts | 197° |
| 2026-05-05 21:19 | 42.09655 | -7.97746 | 11088 ft | 385 kts | 196° |
| 2026-05-05 21:19 | 42.07104 | -7.98689 | 11089 ft | 385 kts | 197° |
| 2026-05-05 21:19 | 42.04515 | -7.99646 | 11089 ft | 385 kts | 197° |
| 2026-05-05 21:20 | 42.01928 | -8.00601 | 11092 ft | 386 kts | 197° |
| 2026-05-05 21:20 | 41.99310 | -8.01567 | 11091 ft | 386 kts | 196° |
| 2026-05-05 21:20 | 41.96753 | -8.02509 | 11092 ft | 386 kts | 197° |
| 2026-05-05 21:20 | 41.94168 | -8.03461 | 11092 ft | 386 kts | 196° |
| 2026-05-05 21:21 | 41.91578 | -8.04414 | 11085 ft | 386 kts | 196° |
| 2026-05-05 21:21 | 41.88988 | -8.05365 | 11089 ft | 385 kts | 197° |
| 2026-05-05 21:21 | 41.86374 | -8.06325 | 11091 ft | 385 kts | 197° |
| 2026-05-05 21:21 | 41.83837 | -8.07302 | 11091 ft | 384 kts | 199° |
| 2026-05-05 21:22 | 41.81296 | -8.08552 | 10928 ft | 383 kts | 204° |
| 2026-05-05 21:22 | 41.78906 | -8.10046 | 10666 ft | 375 kts | 209° |
| 2026-05-05 21:22 | 41.76684 | -8.11681 | 10429 ft | 363 kts | 211° |
| 2026-05-05 21:22 | 41.74486 | -8.13343 | 10206 ft | 351 kts | 211° |
| 2026-05-05 21:23 | 41.72391 | -8.14889 | 9620 ft | 337 kts | 209° |
| 2026-05-05 21:23 | 41.70361 | -8.16209 | 9209 ft | 320 kts | 206° |
| 2026-05-05 21:23 | 41.68384 | -8.17314 | 9083 ft | 298 kts | 202° |
| 2026-05-05 21:23 | 41.66440 | -8.18247 | 9139 ft | 296 kts | 200° |
| 2026-05-05 21:24 | 41.64498 | -8.19136 | 9096 ft | 295 kts | 200° |
| 2026-05-05 21:24 | 41.62556 | -8.20025 | 9091 ft | 295 kts | 200° |
| 2026-05-05 21:24 | 41.60618 | -8.20912 | 9088 ft | 295 kts | 200° |
| 2026-05-05 21:24 | 41.58679 | -8.21798 | 9087 ft | 295 kts | 200° |
| 2026-05-05 21:25 | 41.56738 | -8.22685 | 9090 ft | 295 kts | 200° |
| 2026-05-05 21:25 | 41.54799 | -8.23571 | 9091 ft | 295 kts | 200° |
| 2026-05-05 21:25 | 41.52857 | -8.24457 | 9088 ft | 295 kts | 200° |
| 2026-05-05 21:25 | 41.50917 | -8.25342 | 9090 ft | 295 kts | 200° |
| 2026-05-05 21:26 | 41.48990 | -8.26220 | 8913 ft | 289 kts | 200° |
| 2026-05-05 21:26 | 41.47085 | -8.27087 | 8223 ft | 289 kts | 200° |
| 2026-05-05 21:26 | 41.45184 | -8.27952 | 7691 ft | 288 kts | 200° |
| 2026-05-05 21:26 | 41.43298 | -8.28811 | 7380 ft | 286 kts | 200° |
| 2026-05-05 21:27 | 41.41422 | -8.29666 | 7103 ft | 283 kts | 200° |
| 2026-05-05 21:27 | 41.39547 | -8.30518 | 7096 ft | 286 kts | 200° |
| 2026-05-05 21:27 | 41.37662 | -8.31374 | 7093 ft | 286 kts | 200° |
| 2026-05-05 21:27 | 41.35778 | -8.32230 | 7087 ft | 286 kts | 200° |
| 2026-05-05 21:28 | 41.33893 | -8.33084 | 7087 ft | 286 kts | 200° |
| 2026-05-05 21:28 | 41.32645 | -8.33649 | 7094 ft | 286 kts | 200° |
| 2026-05-05 21:28 | 41.30760 | -8.34504 | 7081 ft | 286 kts | 200° |
| 2026-05-05 21:28 | 41.28869 | -8.35358 | 7091 ft | 287 kts | 200° |
| 2026-05-05 21:29 | 41.26976 | -8.36215 | 7091 ft | 288 kts | 200° |
| 2026-05-05 21:29 | 41.25079 | -8.37073 | 7086 ft | 288 kts | 200° |
| 2026-05-05 21:29 | 41.23182 | -8.37928 | 6937 ft | 286 kts | 201° |
| 2026-05-05 21:29 | 41.21308 | -8.38776 | 6530 ft | 283 kts | 201° |
| 2026-05-05 21:30 | 41.19436 | -8.39622 | 6407 ft | 285 kts | 201° |
| 2026-05-05 21:30 | 41.17557 | -8.40470 | 6272 ft | 285 kts | 201° |
| 2026-05-05 21:30 | 41.15680 | -8.41317 | 6139 ft | 284 kts | 200° |
| 2026-05-05 21:30 | 41.13812 | -8.42159 | 5995 ft | 282 kts | 201° |
| 2026-05-05 21:31 | 41.11963 | -8.42991 | 5667 ft | 280 kts | 200° |
| 2026-05-05 21:31 | 41.10133 | -8.43815 | 5128 ft | 277 kts | 200° |
| 2026-05-05 21:31 | 41.08305 | -8.44639 | 4681 ft | 276 kts | 200° |
| 2026-05-05 21:31 | 41.06494 | -8.45452 | 4346 ft | 275 kts | 200° |
| 2026-05-05 21:32 | 41.04686 | -8.46263 | 4032 ft | 273 kts | 200° |
| 2026-05-05 21:32 | 41.02890 | -8.47068 | 3991 ft | 274 kts | 200° |
| 2026-05-05 21:32 | 41.01149 | -8.48079 | 3968 ft | 273 kts | 220° |
| 2026-05-05 21:32 | 41.00031 | -8.49993 | 3970 ft | 255 kts | 252° |
| 2026-05-05 21:33 | 40.99630 | -8.52181 | 3980 ft | 242 kts | 263° |
| 2026-05-05 21:33 | 40.99342 | -8.54430 | 3991 ft | 254 kts | 264° |
| 2026-05-05 21:33 | 40.99048 | -8.56650 | 3973 ft | 240 kts | 263° |
| 2026-05-05 21:33 | 40.98960 | -8.58762 | 3964 ft | 220 kts | 286° |
| 2026-05-05 21:34 | 40.99569 | -8.60536 | 3962 ft | 210 kts | 313° |
| 2026-05-05 21:34 | 41.00696 | -8.61701 | 3821 ft | 206 kts | 338° |
| 2026-05-05 21:34 | 41.02057 | -8.62198 | 3595 ft | 201 kts | 348° |
| 2026-05-05 21:34 | 41.03385 | -8.62539 | 3465 ft | 186 kts | 349° |
| 2026-05-05 21:35 | 41.04580 | -8.62840 | 3423 ft | 166 kts | 349° |
| 2026-05-05 21:35 | 41.05672 | -8.63120 | 3343 ft | 155 kts | 349° |
| 2026-05-05 21:35 | 41.06700 | -8.63384 | 3261 ft | 148 kts | 348° |
| 2026-05-05 21:35 | 41.07704 | -8.63643 | 3173 ft | 146 kts | 348° |
| 2026-05-05 21:36 | 41.08701 | -8.63901 | 3092 ft | 146 kts | 348° |
| 2026-05-05 21:36 | 41.09697 | -8.64160 | 2965 ft | 146 kts | 348° |
| 2026-05-05 21:36 | 41.10690 | -8.64418 | 2761 ft | 145 kts | 348° |
| 2026-05-05 21:36 | 41.11680 | -8.64676 | 2560 ft | 145 kts | 348° |
| 2026-05-05 21:37 | 41.12664 | -8.64933 | 2378 ft | 144 kts | 348° |
| 2026-05-05 21:37 | 41.13647 | -8.65189 | 2186 ft | 144 kts | 348° |
| 2026-05-05 21:37 | 41.14626 | -8.65445 | 1990 ft | 143 kts | 348° |
| 2026-05-05 21:37 | 41.15601 | -8.65700 | 1794 ft | 143 kts | 348° |
| 2026-05-05 21:38 | 41.16575 | -8.65959 | 1597 ft | 142 kts | 349° |
| 2026-05-05 21:38 | 41.17546 | -8.66207 | 1413 ft | 142 kts | 348° |
| 2026-05-05 21:38 | 41.18513 | -8.66463 | 1229 ft | 142 kts | 348° |
| 2026-05-05 21:38 | 41.19479 | -8.66720 | 1033 ft | 142 kts | 348° |
| 2026-05-05 21:39 | 41.20448 | -8.66975 | 838 ft | 142 kts | 348° |
| 2026-05-05 21:39 | 41.21419 | -8.67226 | 673 ft | 143 kts | 347° |
| 2026-05-05 21:39 | 41.22394 | -8.67492 | 479 ft | 143 kts | 348° |
| 2026-05-05 21:39 | 41.23370 | -8.67749 | 314 ft | 142 kts | 348° |
| 2026-05-05 21:40 | 41.24317 | -8.67993 | 227 ft | 125 kts | 348° |
| 2026-05-05 21:40 | 41.24980 | -8.68173 | 196 ft | 71 kts | 348° |
| 2026-05-05 21:40 | 41.25358 | -8.68281 | 183 ft | 40 kts | 348° |
| 2026-05-05 21:40 | 41.25531 | -8.68318 | 183 ft | 16 kts | 8° |
| 2026-05-05 21:41 | 41.25577 | -8.68285 | 181 ft | 1 kts | 45° |
| 2026-05-05 21:41 | 41.25593 | -8.68262 | 181 ft | 6 kts | 57° |
| 2026-05-05 21:41 | 41.25615 | -8.68190 | 178 ft | 6 kts | 81° |
| 2026-05-05 21:41 | 41.25609 | -8.68152 | 178 ft | 4 kts | 117° |
| 2026-05-05 21:42 | 41.25588 | -8.68117 | 180 ft | 5 kts | 135° |
| 2026-05-05 21:42 | 41.25553 | -8.68089 | 181 ft | 7 kts | 154° |
| 2026-05-05 21:42 | 41.25505 | -8.68064 | 183 ft | 8 kts | 163° |
| 2026-05-05 21:42 | 41.25443 | -8.68045 | 180 ft | 10 kts | 168° |
| 2026-05-05 21:43 | 41.25373 | -8.68027 | 187 ft | 11 kts | 169° |
| 2026-05-05 21:43 | 41.25295 | -8.68010 | 186 ft | 12 kts | 171° |
| 2026-05-05 21:43 | 41.25210 | -8.67994 | 198 ft | 13 kts | 172° |
| 2026-05-05 21:43 | 41.25122 | -8.67977 | 201 ft | 13 kts | 171° |
| 2026-05-05 21:44 | 41.25018 | -8.67952 | 197 ft | 17 kts | 168° |
| 2026-05-05 21:44 | 41.24883 | -8.67907 | 211 ft | 24 kts | 162° |
| 2026-05-05 21:44 | 41.24698 | -8.67812 | 225 ft | 29 kts | 166° |
| 2026-05-05 21:44 | 41.24507 | -8.67759 | 228 ft | 27 kts | 169° |
| 2026-05-05 21:45 | 41.24345 | -8.67713 | 237 ft | 19 kts | 157° |
| 2026-05-05 21:45 | 41.24248 | -8.67604 | 244 ft | 16 kts | 128° |
| 2026-05-05 21:45 | 41.24231 | -8.67575 | 246 ft | 3 kts | 129° |
| 2026-05-05 21:45 | 41.24205 | -8.67540 | 247 ft | 8 kts | 137° |
| 2026-05-05 21:46 | 41.24134 | -8.67479 | 249 ft | 17 kts | 159° |
| 2026-05-05 21:46 | 41.24016 | -8.67448 | 249 ft | 7 kts | 180° |
| 2026-05-05 21:46 | 41.24014 | -8.67448 | 249 ft | 0 kts | 180° |
| 2026-05-05 21:46 | 41.24008 | -8.67447 | 249 ft | 3 kts | 169° |
| 2026-05-05 21:47 | 41.23977 | -8.67416 | 250 ft | 8 kts | 131° |
| 2026-05-05 21:47 | 41.23960 | -8.67386 | 251 ft | 0 kts | 126° |
| 2026-05-05 21:47 | 41.23956 | -8.67380 | 251 ft | 2 kts | 126° |
| 2026-05-05 21:48 | 41.23942 | -8.67354 | 252 ft | 5 kts | 126° |
| 2026-05-05 21:48 | 41.23935 | -8.67341 | 253 ft | 0 kts | 125° |